Time;durP1;ratioP1;P1;durP2;ratioP2;P2;SDS_P1;SDS_P2;PMS_P1;PMS_P2;Temp;Humidity;BMP_temperature;BMP_pressure;BME280_temperature;BME280_humidity;BME280_pressure;Samples;Min_cycle;Max_cycle;Signal;HPM_P1;HPM_P2
2023/05/18 00:01:22;;;;;;;2.13;1.63;;;;;5.00;96592.00;;;;5014414;28;20194;-55
2023/05/18 00:03:52;;;;;;;1.90;1.80;;;;;5.00;96576.00;;;;5014897;28;20268;-55
2023/05/18 00:06:21;;;;;;;1.20;1.20;;;;;5.00;96578.00;;;;5014507;28;20195;-55
2023/05/18 00:08:48;;;;;;;1.70;1.60;;;;;4.90;96570.00;;;;5014150;28;20198;-54
2023/05/18 00:11:16;;;;;;;1.90;1.73;;;;;4.90;96572.00;;;;5014406;28;20204;-54
2023/05/18 00:13:43;;;;;;;2.03;1.93;;;;;4.80;96566.00;;;;5014240;28;20200;-54
2023/05/18 00:16:14;;;;;;;1.23;1.23;;;;;4.90;96558.00;;;;5014287;28;20219;-54
2023/05/18 00:18:43;;;;;;;1.00;1.00;;;;;5.00;96562.00;;;;5014315;28;20262;-54
2023/05/18 00:21:12;;;;;;;2.20;2.00;;;;;5.00;96558.00;;;;5014041;28;20199;-54
2023/05/18 00:23:41;;;;;;;2.00;1.80;;;;;5.00;96557.00;;;;5014564;28;20217;-54
2023/05/18 00:26:08;;;;;;;1.67;1.53;;;;;5.10;96555.00;;;;5014617;28;20696;-54
2023/05/18 00:28:35;;;;;;;1.07;1.07;;;;;5.00;96560.00;;;;5013622;28;20204;-54
2023/05/18 00:31:03;;;;;;;1.53;1.43;;;;;4.80;96548.00;;;;5014012;28;20220;-54
2023/05/18 00:33:30;;;;;;;0.77;0.77;;;;;4.90;96546.00;;;;5013831;28;20267;-54
2023/05/18 00:35:59;;;;;;;1.23;1.23;;;;;4.90;96545.00;;;;5013936;28;20223;-54
2023/05/18 00:38:26;;;;;;;1.10;1.10;;;;;4.80;96541.00;;;;5013792;28;20217;-54
2023/05/18 00:40:53;;;;;;;1.23;1.23;;;;;4.80;96541.00;;;;5013717;28;20216;-54
2023/05/18 00:43:21;;;;;;;1.17;1.17;;;;;4.80;96535.00;;;;5013968;28;20206;-54
2023/05/18 00:45:48;;;;;;;2.40;2.13;;;;;4.80;96532.00;;;;5013756;28;20193;-54
2023/05/18 00:48:15;;;;;;;1.90;1.70;;;;;4.70;96532.00;;;;5013671;28;20653;-54
2023/05/18 00:50:43;;;;;;;1.30;1.30;;;;;4.60;96538.00;;;;5013587;28;20212;-54
2023/05/18 00:53:12;;;;;;;1.90;1.80;;;;;4.80;96530.00;;;;5013872;28;20280;-54
2023/05/18 00:55:39;;;;;;;1.03;1.03;;;;;4.80;96531.00;;;;5013466;28;20230;-54
2023/05/18 00:58:06;;;;;;;4.00;1.70;;;;;4.70;96527.00;;;;5013551;28;20661;-54
2023/05/18 01:00:36;;;;;;;1.20;1.20;;;;;4.60;96528.00;;;;5013483;28;20232;-55
2023/05/18 01:03:04;;;;;;;1.00;1.00;;;;;4.60;96532.00;;;;5013807;28;20672;-55
2023/05/18 01:05:32;;;;;;;0.87;0.87;;;;;4.70;96530.00;;;;5012222;28;20644;-55
2023/05/18 01:08:01;;;;;;;1.30;1.30;;;;;4.70;96528.00;;;;5013488;28;20558;-55
2023/05/18 01:10:36;;;;;;;1.73;1.10;;;;;4.80;96515.00;;;;5012184;28;20279;-55
2023/05/18 01:13:09;;;;;;;2.37;2.23;;;;;4.70;96519.00;;;;5013732;28;20193;-55
2023/05/18 01:15:38;;;;;;;1.43;1.33;;;;;4.80;96524.00;;;;5013395;28;20208;-54
2023/05/18 01:18:15;;;;;;;1.07;1.07;;;;;4.80;96530.00;;;;5013415;28;20189;-54
2023/05/18 01:20:47;;;;;;;1.60;1.50;;;;;4.70;96527.00;;;;5013621;28;20214;-55
2023/05/18 01:23:45;;;;;;;1.77;1.67;;;;;4.70;96528.00;;;;5013673;28;20192;-55
2023/05/18 01:26:23;;;;;;;1.60;1.50;;;;;4.70;96518.00;;;;5012080;28;20531;-55
2023/05/18 01:28:54;;;;;;;1.00;1.00;;;;;4.70;96526.00;;;;5011964;28;20563;-55
2023/05/18 01:31:21;;;;;;;1.83;1.40;;;;;4.70;96516.00;;;;5013269;28;20195;-55
2023/05/18 01:33:48;;;;;;;1.13;1.13;;;;;4.50;96522.00;;;;5013251;28;20200;-55
2023/05/18 01:36:16;;;;;;;1.37;1.37;;;;;4.60;96521.00;;;;5013399;28;20213;-55
2023/05/18 01:38:44;;;;;;;6.33;2.00;;;;;4.50;96518.00;;;;5013407;28;20207;-55
2023/05/18 01:41:21;;;;;;;1.50;1.40;;;;;4.50;96518.00;;;;5015187;28;20197;-54
2023/05/18 01:43:53;;;;;;;1.50;1.47;;;;;4.50;96522.00;;;;5016934;28;20544;-54
2023/05/18 01:46:32;;;;;;;0.87;0.87;;;;;4.30;96515.00;;;;5017284;28;20216;-54
2023/05/18 01:49:04;;;;;;;1.63;1.53;;;;;4.30;96525.00;;;;5016806;28;20664;-55
2023/05/18 01:51:36;;;;;;;1.80;1.70;;;;;4.10;96521.00;;;;5016790;28;20185;-54
2023/05/18 01:54:06;;;;;;;1.37;1.37;;;;;4.10;96527.00;;;;5017050;28;20220;-54
2023/05/18 01:56:36;;;;;;;1.60;1.17;;;;;4.00;96526.00;;;;5016846;28;20208;-54
2023/05/18 01:59:03;;;;;;;10.30;1.63;;;;;4.00;96524.00;;;;5016812;28;20212;-55
2023/05/18 02:01:31;;;;;;;0.80;0.80;;;;;4.00;96513.00;;;;5016596;28;20254;-54
2023/05/18 02:03:59;;;;;;;1.00;1.00;;;;;4.10;96520.00;;;;5016502;28;20653;-54
2023/05/18 02:06:26;;;;;;;1.67;1.57;;;;;4.10;96519.00;;;;5016529;28;20692;-54
2023/05/18 02:08:54;;;;;;;2.00;1.80;;;;;4.10;96511.00;;;;5016629;28;20186;-54
2023/05/18 02:11:21;;;;;;;4.17;2.27;;;;;4.10;96516.00;;;;5016686;28;20200;-54
2023/05/18 02:13:50;;;;;;;1.83;1.73;;;;;4.00;96514.00;;;;5016367;28;20223;-55
2023/05/18 02:16:18;;;;;;;2.37;1.37;;;;;4.00;96508.00;;;;5016521;28;20233;-54
2023/05/18 02:18:46;;;;;;;0.73;0.73;;;;;4.00;96504.00;;;;5016250;28;20228;-55
2023/05/18 02:21:13;;;;;;;2.40;1.63;;;;;3.90;96511.00;;;;5016443;28;20232;-55
2023/05/18 02:23:42;;;;;;;3.03;1.50;;;;;3.80;96504.00;;;;5016966;28;20226;-54
2023/05/18 02:26:09;;;;;;;1.10;1.10;;;;;3.80;96506.00;;;;5016972;28;20670;-54
2023/05/18 02:28:39;;;;;;;2.93;1.73;;;;;3.90;96510.00;;;;5016617;28;20204;-55
2023/05/18 02:31:10;;;;;;;1.40;1.00;;;;;3.90;96503.00;;;;5016041;28;20305;-55
2023/05/18 02:33:39;;;;;;;1.03;1.03;;;;;4.10;96503.00;;;;5016631;28;20197;-55
2023/05/18 02:36:08;;;;;;;1.13;1.13;;;;;4.10;96503.00;;;;5015422;28;20650;-55
2023/05/18 02:38:39;;;;;;;0.97;0.97;;;;;4.10;96502.00;;;;5016143;28;20197;-55
2023/05/18 02:41:08;;;;;;;3.90;1.43;;;;;4.10;96499.00;;;;5015791;28;20719;-54
2023/05/18 02:43:36;;;;;;;1.23;1.20;;;;;4.00;96499.00;;;;5016068;28;20548;-54
2023/05/18 02:46:04;;;;;;;1.47;1.47;;;;;3.90;96491.00;;;;5015793;28;20220;-55
2023/05/18 02:48:32;;;;;;;1.33;1.33;;;;;3.80;96494.00;;;;5015712;28;20202;-55
2023/05/18 02:51:00;;;;;;;1.53;1.43;;;;;3.80;96495.00;;;;5015644;28;20648;-55
2023/05/18 02:53:27;;;;;;;1.07;1.07;;;;;3.70;96489.00;;;;5015823;28;20198;-55
2023/05/18 02:55:56;;;;;;;1.77;1.67;;;;;3.70;96486.00;;;;5016046;28;20210;-55
2023/05/18 02:58:25;;;;;;;1.33;1.33;;;;;3.70;96491.00;;;;5015563;28;20197;-55
2023/05/18 03:00:54;;;;;;;1.73;1.63;;;;;3.70;96493.00;;;;5015418;28;20276;-54
2023/05/18 03:03:22;;;;;;;2.07;1.97;;;;;3.80;96500.00;;;;5015463;28;20218;-54
2023/05/18 03:05:52;;;;;;;0.97;0.97;;;;;3.70;96490.00;;;;5015350;28;20198;-55
2023/05/18 03:08:21;;;;;;;2.37;2.17;;;;;3.70;96493.00;;;;5015917;28;20276;-55
2023/05/18 03:10:49;;;;;;;0.70;0.70;;;;;3.70;96475.00;;;;5015135;28;20221;-55
2023/05/18 03:13:16;;;;;;;1.13;1.13;;;;;3.70;96493.00;;;;5015557;28;20197;-55
2023/05/18 03:15:45;;;;;;;1.00;1.00;;;;;3.60;96486.00;;;;5015403;28;20203;-54
2023/05/18 03:18:12;;;;;;;1.83;1.73;;;;;3.60;96490.00;;;;5015111;28;20225;-54
2023/05/18 03:20:40;;;;;;;1.70;1.60;;;;;3.50;96504.00;;;;5015005;28;20229;-54
2023/05/18 03:23:09;;;;;;;0.90;0.90;;;;;3.60;96496.00;;;;5014989;28;20684;-54
2023/05/18 03:25:36;;;;;;;1.30;1.23;;;;;3.50;96487.00;;;;5015281;28;20198;-55
2023/05/18 03:28:04;;;;;;;1.00;1.00;;;;;3.70;96488.00;;;;5014937;28;20688;-54
2023/05/18 03:30:32;;;;;;;1.30;1.30;;;;;3.70;96490.00;;;;5014782;28;20722;-55
2023/05/18 03:33:00;;;;;;;1.50;1.43;;;;;3.70;96484.00;;;;5015273;28;20541;-54
2023/05/18 03:35:27;;;;;;;1.50;1.40;;;;;3.70;96483.00;;;;5014986;28;20197;-55
2023/05/18 03:37:55;;;;;;;2.07;1.97;;;;;3.70;96484.00;;;;5014639;28;20692;-54
2023/05/18 03:40:25;;;;;;;1.87;1.73;;;;;3.70;96490.00;;;;5014499;28;20218;-54
2023/05/18 03:42:52;;;;;;;1.73;1.63;;;;;3.60;96484.00;;;;5014737;28;20653;-54
2023/05/18 03:45:19;;;;;;;1.10;1.10;;;;;3.70;96488.00;;;;5014506;28;20369;-53
2023/05/18 03:47:47;;;;;;;1.13;1.10;;;;;3.60;96493.00;;;;5013268;28;20649;-54
2023/05/18 03:50:14;;;;;;;1.30;1.23;;;;;3.60;96495.00;;;;5014373;28;20301;-55
2023/05/18 03:52:44;;;;;;;1.53;1.43;;;;;3.60;96488.00;;;;5014745;28;20567;-55
2023/05/18 03:55:11;;;;;;;4.93;1.67;;;;;3.60;96497.00;;;;5014815;28;20205;-55
2023/05/18 03:57:40;;;;;;;1.30;1.20;;;;;3.70;96491.00;;;;5014545;28;20572;-55
2023/05/18 04:00:11;;;;;;;1.97;1.83;;;;;3.70;96493.00;;;;5014243;28;20278;-55
2023/05/18 04:02:40;;;;;;;1.53;1.43;;;;;3.60;96502.00;;;;5014248;28;20274;-55
2023/05/18 04:05:08;;;;;;;1.17;1.13;;;;;3.70;96492.00;;;;5014057;28;20244;-55
2023/05/18 04:07:42;;;;;;;2.43;2.27;;;;;3.70;96496.00;;;;5014673;28;20194;-54
2023/05/18 04:10:10;;;;;;;2.03;1.53;;;;;3.70;96498.00;;;;5014196;28;20217;-54
2023/05/18 04:12:39;;;;;;;1.50;1.40;;;;;3.60;96500.00;;;;5014085;28;20244;-54
2023/05/18 04:15:08;;;;;;;0.93;0.90;;;;;3.70;96510.00;;;;5014036;28;20682;-54
2023/05/18 04:17:35;;;;;;;1.30;1.20;;;;;3.70;96509.00;;;;5014156;28;20224;-55
2023/05/18 04:20:11;;;;;;;1.40;1.30;;;;;3.70;96508.00;;;;5013985;28;20212;-54
2023/05/18 04:22:45;;;;;;;1.50;1.40;;;;;3.80;96509.00;;;;5014257;28;20242;-55
2023/05/18 04:25:13;;;;;;;1.20;1.20;;;;;3.90;96510.00;;;;5013911;28;20197;-55
2023/05/18 04:27:44;;;;;;;1.33;1.33;;;;;3.80;96515.00;;;;5014207;28;20348;-56
2023/05/18 04:30:12;;;;;;;1.23;1.20;;;;;3.90;96517.00;;;;5013905;28;20221;-54
2023/05/18 04:32:41;;;;;;;1.40;1.30;;;;;3.90;96516.00;;;;5014346;28;20197;-54
2023/05/18 04:35:09;;;;;;;1.17;1.17;;;;;4.00;96525.00;;;;5013771;28;20221;-55
2023/05/18 04:37:39;;;;;;;5.63;2.17;;;;;4.10;96530.00;;;;5013950;28;20221;-55
2023/05/18 04:40:11;;;;;;;1.53;1.47;;;;;4.10;96522.00;;;;5013628;28;20217;-55
2023/05/18 04:42:44;;;;;;;1.10;1.10;;;;;4.20;96480.00;;;;5014041;28;20182;-55
2023/05/18 04:45:15;;;;;;;1.23;1.23;;;;;4.20;96533.00;;;;5013658;28;20597;-55
2023/05/18 04:47:45;;;;;;;1.80;0.93;;;;;4.30;96524.00;;;;5013740;28;20185;-55
2023/05/18 04:50:13;;;;;;;0.90;0.90;;;;;4.30;96518.00;;;;5013525;28;20225;-60
2023/05/18 04:52:47;;;;;;;0.97;0.97;;;;;4.40;96525.00;;;;5013652;28;20276;-55
2023/05/18 04:55:18;;;;;;;1.30;1.30;;;;;4.50;96523.00;;;;5013425;28;20230;-55
2023/05/18 04:57:47;;;;;;;0.90;0.90;;;;;4.30;96528.00;;;;5012121;28;20775;-55
2023/05/18 05:00:15;;;;;;;0.97;0.97;;;;;4.40;96530.00;;;;5013644;28;20213;-55
2023/05/18 05:02:43;;;;;;;1.17;1.17;;;;;4.30;96542.00;;;;5013495;28;20382;-55
2023/05/18 05:05:10;;;;;;;0.93;0.93;;;;;4.40;96539.00;;;;5013416;28;20193;-55
2023/05/18 05:07:38;;;;;;;1.30;1.30;;;;;4.30;96540.00;;;;5013361;28;20186;-55
2023/05/18 05:10:06;;;;;;;1.97;1.87;;;;;4.30;96531.00;;;;5013330;28;20271;-55
2023/05/18 05:12:35;;;;;;;1.10;1.10;;;;;4.50;96534.00;;;;5012095;28;20194;-55
2023/05/18 05:15:04;;;;;;;1.13;1.13;;;;;4.60;96532.00;;;;5012307;28;20220;-55
2023/05/18 05:17:32;;;;;;;1.33;1.33;;;;;4.60;96540.00;;;;5017229;28;20708;-55
2023/05/18 05:19:59;;;;;;;1.73;1.33;;;;;4.50;96534.00;;;;5015822;28;20232;-55
2023/05/18 05:22:26;;;;;;;1.73;1.53;;;;;4.70;96538.00;;;;5017325;28;20193;-55
2023/05/18 05:24:55;;;;;;;1.10;1.10;;;;;4.80;96532.00;;;;5017546;28;20605;-55
2023/05/18 05:27:24;;;;;;;1.03;1.03;;;;;4.60;96528.00;;;;5017268;28;20189;-55
2023/05/18 05:29:52;;;;;;;1.43;1.33;;;;;4.80;96537.00;;;;5017095;28;20220;-55
2023/05/18 05:32:21;;;;;;;1.10;1.10;;;;;4.80;96532.00;;;;5017317;28;20201;-55
2023/05/18 05:34:49;;;;;;;0.93;0.93;;;;;4.90;96542.00;;;;5017037;28;20189;-55
2023/05/18 05:37:17;;;;;;;0.97;0.90;;;;;5.00;96539.00;;;;5017459;28;20220;-55
2023/05/18 05:39:45;;;;;;;1.10;1.10;;;;;5.00;96543.00;;;;5017332;28;20225;-55
2023/05/18 05:42:12;;;;;;;1.00;1.00;;;;;5.20;96543.00;;;;5017637;28;20202;-55
2023/05/18 05:44:40;;;;;;;0.87;0.87;;;;;5.50;96531.00;;;;5017939;28;20213;-55
2023/05/18 05:47:08;;;;;;;1.07;1.07;;;;;5.60;96533.00;;;;5016987;28;20194;-55
2023/05/18 05:49:37;;;;;;;0.87;0.87;;;;;5.70;96538.00;;;;5016897;28;20213;-55
2023/05/18 05:52:05;;;;;;;0.93;0.93;;;;;5.80;96533.00;;;;5016683;28;20200;-55
2023/05/18 05:54:32;;;;;;;1.47;1.37;;;;;6.00;96533.00;;;;5016869;28;20537;-55
2023/05/18 05:57:00;;;;;;;1.10;1.10;;;;;6.10;96537.00;;;;5016793;28;20217;-55
2023/05/18 05:59:27;;;;;;;1.00;1.00;;;;;6.10;96523.00;;;;5016541;28;20730;-55
2023/05/18 06:01:55;;;;;;;1.27;1.27;;;;;6.00;96536.00;;;;5017031;28;20197;-55
2023/05/18 06:04:22;;;;;;;1.27;1.17;;;;;6.00;96544.00;;;;5017215;28;20205;-55
2023/05/18 06:06:51;;;;;;;0.93;0.93;;;;;6.20;96536.00;;;;5016727;28;20197;-55
2023/05/18 06:09:18;;;;;;;0.70;0.70;;;;;6.30;96540.00;;;;5016193;28;20248;-55
2023/05/18 06:11:46;;;;;;;1.33;1.23;;;;;6.50;96543.00;;;;5016931;28;20223;-55
2023/05/18 06:14:13;;;;;;;1.00;1.00;;;;;6.50;96529.00;;;;5016304;28;20192;-55
2023/05/18 06:16:41;;;;;;;1.60;1.10;;;;;6.60;96532.00;;;;5016520;28;20198;-54
2023/05/18 06:19:08;;;;;;;1.20;1.20;;;;;6.80;96537.00;;;;5016719;28;20221;-55
2023/05/18 06:21:35;;;;;;;1.40;1.40;;;;;7.10;96536.00;;;;5016411;28;20556;-54
2023/05/18 06:24:04;;;;;;;1.10;1.10;;;;;7.50;96538.00;;;;5016076;28;20205;-54
2023/05/18 06:26:32;;;;;;;1.30;1.27;;;;;7.60;96531.00;;;;5015492;28;20212;-54
2023/05/18 06:28:59;;;;;;;0.67;0.67;;;;;7.90;96536.00;;;;5015935;28;20197;-54
2023/05/18 06:31:27;;;;;;;1.70;1.60;;;;;8.00;96537.00;;;;5015977;28;20220;-54
2023/05/18 06:33:54;;;;;;;1.30;1.20;;;;;8.10;96537.00;;;;5015926;28;20195;-54
2023/05/18 06:36:22;;;;;;;1.10;1.10;;;;;8.10;96542.00;;;;5016198;28;20208;-56
2023/05/18 06:38:49;;;;;;;1.30;1.20;;;;;8.20;96541.00;;;;5016374;28;20228;-54
2023/05/18 06:41:18;;;;;;;1.50;1.40;;;;;8.40;96539.00;;;;5015775;28;20204;-57
2023/05/18 06:43:45;;;;;;;1.00;1.00;;;;;8.60;96540.00;;;;5016053;28;20656;-54
2023/05/18 06:46:20;;;;;;;1.90;1.80;;;;;8.70;96533.00;;;;5015750;28;20193;-55
2023/05/18 06:48:47;;;;;;;0.97;0.97;;;;;8.70;96536.00;;;;5015826;28;20641;-55
2023/05/18 06:51:15;;;;;;;1.23;1.13;;;;;8.80;96539.00;;;;5015631;28;20197;-55
2023/05/18 06:53:43;;;;;;;0.60;0.60;;;;;8.80;96541.00;;;;5015673;28;20221;-55
2023/05/18 06:56:11;;;;;;;1.53;1.43;;;;;8.80;96537.00;;;;5015499;28;20205;-55
2023/05/18 06:58:41;;;;;;;0.70;0.70;;;;;8.90;96542.00;;;;5015333;28;20217;-54
2023/05/18 07:01:08;;;;;;;2.23;1.27;;;;;9.10;96534.00;;;;5015346;28;20738;-55
2023/05/18 07:03:36;;;;;;;1.57;1.47;;;;;9.10;96537.00;;;;5015348;28;20221;-55
2023/05/18 07:06:04;;;;;;;1.23;1.13;;;;;9.20;96536.00;;;;5015312;28;20269;-55
2023/05/18 07:08:32;;;;;;;1.63;1.43;;;;;9.40;96536.00;;;;5015536;28;20251;-55
2023/05/18 07:11:01;;;;;;;1.63;1.53;;;;;9.50;96541.00;;;;5015272;28;20638;-55
2023/05/18 07:13:28;;;;;;;1.30;1.30;;;;;9.60;96538.00;;;;5015464;28;20263;-55
2023/05/18 07:15:57;;;;;;;0.80;0.80;;;;;9.50;96540.00;;;;5015357;28;20201;-55
2023/05/18 07:18:25;;;;;;;1.20;1.20;;;;;9.60;96538.00;;;;5015005;28;20217;-55
2023/05/18 07:20:52;;;;;;;1.07;1.07;;;;;9.70;96535.00;;;;5014977;28;20222;-55
2023/05/18 07:23:20;;;;;;;1.77;1.67;;;;;9.80;96534.00;;;;5014991;28;20197;-55
2023/05/18 07:25:47;;;;;;;1.20;1.20;;;;;9.90;96547.00;;;;5015494;28;20284;-56
2023/05/18 07:28:15;;;;;;;1.30;1.20;;;;;10.00;96537.00;;;;5014869;28;20198;-56
2023/05/18 07:30:43;;;;;;;1.53;1.43;;;;;10.00;96533.00;;;;5014694;28;20705;-54
2023/05/18 07:33:12;;;;;;;1.10;1.10;;;;;10.00;96535.00;;;;5014870;28;20194;-54
2023/05/18 07:35:39;;;;;;;1.13;1.03;;;;;10.10;96539.00;;;;5013601;28;20208;-56
2023/05/18 07:38:06;;;;;;;1.50;1.43;;;;;10.20;96544.00;;;;5013798;28;20221;-55
2023/05/18 07:40:34;;;;;;;0.70;0.70;;;;;10.30;96532.00;;;;5014985;28;20706;-55
2023/05/18 07:43:01;;;;;;;1.07;1.07;;;;;10.40;96532.00;;;;5014957;28;20560;-55
2023/05/18 07:45:28;;;;;;;1.67;1.57;;;;;10.50;96534.00;;;;5014638;28;20208;-55
2023/05/18 07:47:56;;;;;;;0.80;0.80;;;;;10.60;96529.00;;;;5014861;28;20193;-55
2023/05/18 07:50:25;;;;;;;1.80;1.27;;;;;10.70;96539.00;;;;5013164;28;20693;-55
2023/05/18 07:52:52;;;;;;;0.83;0.83;;;;;10.80;96529.00;;;;5014493;28;20220;-56
2023/05/18 07:55:20;;;;;;;1.40;1.30;;;;;10.90;96533.00;;;;5014486;28;20730;-56
2023/05/18 07:57:47;;;;;;;4.73;1.33;;;;;11.10;96537.00;;;;5014401;28;20272;-56
2023/05/18 08:00:16;;;;;;;1.07;1.07;;;;;11.10;96538.00;;;;5014335;28;20224;-56
2023/05/18 08:02:43;;;;;;;4.83;1.27;;;;;11.00;96540.00;;;;5014363;28;20200;-56
2023/05/18 08:05:11;;;;;;;1.00;1.00;;;;;11.10;96543.00;;;;5014609;28;20675;-56
2023/05/18 08:07:40;;;;;;;0.80;0.80;;;;;11.30;96536.00;;;;5014335;28;20198;-56
2023/05/18 08:10:08;;;;;;;1.60;1.50;;;;;11.20;96537.00;;;;5014354;28;20229;-56
2023/05/18 08:12:35;;;;;;;0.90;0.90;;;;;11.40;96536.00;;;;5014713;28;20248;-56
2023/05/18 08:15:02;;;;;;;1.70;1.60;;;;;11.40;96527.00;;;;5014149;28;20198;-56
2023/05/18 08:17:30;;;;;;;1.90;1.23;;;;;11.60;96533.00;;;;5014002;28;20556;-56
2023/05/18 08:19:58;;;;;;;1.90;1.70;;;;;11.60;96538.00;;;;5014042;28;20712;-56
2023/05/18 08:22:25;;;;;;;1.20;1.20;;;;;11.60;96540.00;;;;5014239;28;20560;-56
2023/05/18 08:24:55;;;;;;;10.47;1.20;;;;;11.60;96535.00;;;;5013947;28;20679;-56
2023/05/18 08:27:22;;;;;;;0.97;0.97;;;;;11.60;96531.00;;;;5014233;28;20584;-56
2023/05/18 08:29:50;;;;;;;0.77;0.77;;;;;11.80;96536.00;;;;5013800;28;20220;-54
2023/05/18 08:32:17;;;;;;;2.07;1.90;;;;;12.00;96544.00;;;;5013832;28;20197;-55
2023/05/18 08:34:45;;;;;;;2.60;1.43;;;;;12.00;96532.00;;;;5014220;28;20197;-55
2023/05/18 08:37:12;;;;;;;1.17;1.17;;;;;12.10;96526.00;;;;5013675;28;20224;-55
2023/05/18 08:39:40;;;;;;;2.23;0.90;;;;;12.20;96533.00;;;;5013559;28;20221;-55
2023/05/18 08:42:16;;;;;;;1.00;1.00;;;;;12.40;96522.00;;;;5013731;28;20201;-56
2023/05/18 08:44:56;;;;;;;1.17;1.17;;;;;12.50;96515.00;;;;5014298;28;20624;-56
2023/05/18 08:47:25;;;;;;;1.63;1.53;;;;;12.70;96523.00;;;;5013933;28;20189;-55
2023/05/18 08:49:55;;;;;;;2.07;1.40;;;;;12.60;96526.00;;;;5013496;28;20276;-56
2023/05/18 08:52:26;;;;;;;1.23;1.23;;;;;12.40;96510.00;;;;5013851;28;20563;-55
2023/05/18 08:54:56;;;;;;;1.13;1.13;;;;;12.50;96517.00;;;;5013632;28;20637;-55
2023/05/18 08:57:28;;;;;;;1.23;1.10;;;;;12.70;96510.00;;;;5013681;28;20189;-55
2023/05/18 08:59:57;;;;;;;0.80;0.80;;;;;12.80;96519.00;;;;5013467;28;20214;-55
2023/05/18 09:02:26;;;;;;;1.37;1.17;;;;;12.60;96520.00;;;;5013498;28;20669;-55
2023/05/18 09:04:55;;;;;;;1.20;1.20;;;;;12.80;96515.00;;;;5013364;28;20691;-55
2023/05/18 09:07:26;;;;;;;1.20;1.10;;;;;13.10;96507.00;;;;5013433;28;20193;-55
2023/05/18 09:09:56;;;;;;;0.70;0.70;;;;;13.40;96511.00;;;;5013272;28;20220;-55
2023/05/18 09:12:26;;;;;;;1.13;1.13;;;;;13.30;96510.00;;;;5013357;28;20197;-56
2023/05/18 09:14:54;;;;;;;1.70;1.60;;;;;13.40;96511.00;;;;5013886;28;20652;-55
2023/05/18 09:17:22;;;;;;;0.90;0.90;;;;;13.80;96507.00;;;;5013844;28;20245;-56
2023/05/18 09:19:50;;;;;;;1.03;0.87;;;;;13.90;96517.00;;;;5013189;28;20232;-55
2023/05/18 09:22:17;;;;;;;1.77;1.27;;;;;13.80;96504.00;;;;5013262;28;20209;-55
2023/05/18 09:24:45;;;;;;;6.23;1.60;;;;;13.80;96506.00;;;;5013197;28;20194;-55
2023/05/18 09:27:12;;;;;;;1.03;0.93;;;;;13.80;96510.00;;;;5013201;28;20219;-55
2023/05/18 09:29:52;;;;;;;1.57;1.47;;;;;14.10;96516.00;;;;5013123;28;20213;-55
2023/05/18 09:32:20;;;;;;;1.27;1.23;;;;;14.50;96504.00;;;;5013035;28;20189;-56
2023/05/18 09:34:48;;;;;;;3.70;1.47;;;;;14.20;96514.00;;;;5013417;28;20189;-55
2023/05/18 09:37:17;;;;;;;2.53;1.60;;;;;13.90;96514.00;;;;5013163;28;20190;-55
2023/05/18 09:39:44;;;;;;;0.80;0.80;;;;;13.90;96502.00;;;;5012930;28;20300;-55
2023/05/18 09:42:12;;;;;;;2.30;1.93;;;;;14.30;96513.00;;;;5013672;28;20193;-55
2023/05/18 09:44:39;;;;;;;1.07;1.07;;;;;14.50;96510.00;;;;5013347;28;20201;-55
2023/05/18 09:47:10;;;;;;;1.30;1.20;;;;;14.50;96510.00;;;;5013634;28;20671;-55
2023/05/18 09:49:37;;;;;;;0.80;0.80;;;;;14.50;96504.00;;;;5012947;28;20693;-55
2023/05/18 09:52:09;;;;;;;1.30;1.20;;;;;14.30;96513.00;;;;5013505;28;20197;-54
2023/05/18 09:54:37;;;;;;;1.37;1.07;;;;;14.60;96513.00;;;;5011705;28;20272;-55
2023/05/18 09:57:05;;;;;;;3.00;1.37;;;;;14.80;96496.00;;;;5012913;28;20272;-55
2023/05/18 09:59:35;;;;;;;1.13;1.13;;;;;15.10;96515.00;;;;5012635;28;20659;-54
2023/05/18 10:02:07;;;;;;;1.70;1.27;;;;;14.90;96484.00;;;;5014754;28;20201;-55
2023/05/18 10:04:41;;;;;;;1.97;1.77;;;;;15.20;96496.00;;;;5016847;28;20540;-55
2023/05/18 10:07:11;;;;;;;3.40;1.57;;;;;15.50;96496.00;;;;5016942;28;20258;-55
2023/05/18 10:09:40;;;;;;;1.20;1.20;;;;;15.40;96496.00;;;;5016666;28;20755;-55
2023/05/18 10:12:18;;;;;;;1.83;1.73;;;;;15.30;96488.00;;;;5016488;28;20201;-55
2023/05/18 10:14:46;;;;;;;0.80;0.80;;;;;15.00;96495.00;;;;5016434;28;20219;-54
2023/05/18 10:17:15;;;;;;;1.07;1.07;;;;;15.40;96488.00;;;;5016119;28;20271;-55
2023/05/18 10:19:45;;;;;;;1.63;1.37;;;;;15.40;96494.00;;;;5016102;28;20231;-55
2023/05/18 10:22:15;;;;;;;0.93;0.93;;;;;15.40;96496.00;;;;5016188;28;20228;-55
2023/05/18 10:24:45;;;;;;;1.30;1.27;;;;;15.30;96488.00;;;;5016170;28;20208;-55
2023/05/18 10:27:16;;;;;;;1.10;1.10;;;;;15.80;96486.00;;;;5014730;28;20208;-55
2023/05/18 10:29:45;;;;;;;0.80;0.80;;;;;15.90;96494.00;;;;5016160;28;20221;-55
2023/05/18 10:32:14;;;;;;;1.07;1.07;;;;;15.90;96473.00;;;;5015882;28;20197;-55
2023/05/18 10:34:44;;;;;;;1.03;1.03;;;;;15.80;96500.00;;;;5016044;28;20198;-55
2023/05/18 10:37:13;;;;;;;1.67;1.57;;;;;15.60;96487.00;;;;5016076;28;20284;-55
2023/05/18 10:39:44;;;;;;;0.67;0.67;;;;;15.60;96496.00;;;;5015496;28;20240;-55
2023/05/18 10:42:15;;;;;;;0.80;0.80;;;;;15.90;96499.00;;;;5016020;28;20274;-55
2023/05/18 10:44:44;;;;;;;1.07;1.03;;;;;15.90;96463.00;;;;5015703;28;20189;-55
2023/05/18 10:47:14;;;;;;;4.00;0.73;;;;;16.00;96493.00;;;;5015433;28;20197;-55
2023/05/18 10:49:46;;;;;;;5.20;1.27;;;;;16.10;96470.00;;;;5015398;28;20213;-54
2023/05/18 10:52:16;;;;;;;3.30;2.20;;;;;16.40;96470.00;;;;5016078;28;20182;-54
2023/05/18 10:54:44;;;;;;;1.17;1.17;;;;;16.70;96483.00;;;;5015386;28;20194;-54
2023/05/18 10:57:14;;;;;;;0.87;0.87;;;;;16.90;96498.00;;;;5015459;28;20193;-54
2023/05/18 10:59:43;;;;;;;1.83;1.60;;;;;16.80;96463.00;;;;5015177;28;20225;-56
2023/05/18 11:02:12;;;;;;;0.83;0.83;;;;;16.90;96485.00;;;;5015374;28;20198;-55
2023/05/18 11:04:40;;;;;;;0.90;0.90;;;;;17.10;96491.00;;;;5015583;28;20202;-55
2023/05/18 11:07:12;;;;;;;0.97;0.97;;;;;16.80;96466.00;;;;5014119;28;20657;-55
2023/05/18 11:09:42;;;;;;;0.97;0.97;;;;;17.00;96469.00;;;;5013787;28;20221;-55
2023/05/18 11:12:13;;;;;;;3.20;0.90;;;;;17.20;96459.00;;;;5015054;28;20198;-56
2023/05/18 11:14:49;;;;;;;0.97;0.97;;;;;17.50;96480.00;;;;5015232;28;20247;-55
2023/05/18 11:17:20;;;;;;;1.77;1.67;;;;;17.70;96452.00;;;;5015020;28;20607;-55
2023/05/18 11:20:13;;;;;;;0.80;0.80;;;;;17.80;96452.00;;;;5015049;28;20271;-55
2023/05/18 11:22:46;;;;;;;1.43;1.33;;;;;17.90;96467.00;;;;5015412;28;20225;-56
2023/05/18 11:25:39;;;;;;;1.03;0.97;;;;;17.70;96462.00;;;;5015142;28;20201;-55
2023/05/18 11:28:09;;;;;;;1.63;1.53;;;;;17.70;96457.00;;;;5014842;28;20744;-55
2023/05/18 11:30:50;;;;;;;1.03;1.03;;;;;17.90;96457.00;;;;5015006;28;20551;-55
2023/05/18 11:33:27;;;;;;;1.43;1.43;;;;;18.30;96456.00;;;;5015065;28;20205;-55
2023/05/18 11:36:06;;;;;;;3.57;1.17;;;;;18.10;96461.00;;;;5015155;28;20185;-56
2023/05/18 11:38:52;;;;;;;1.00;1.00;;;;;18.30;96478.00;;;;5014643;28;20260;-55
2023/05/18 11:41:31;;;;;;;1.47;1.37;;;;;17.60;96467.00;;;;5014629;28;20192;-57
2023/05/18 11:44:20;;;;;;;1.00;1.00;;;;;18.20;96450.00;;;;5014553;28;20194;-57
2023/05/18 11:46:56;;;;;;;1.97;1.77;;;;;18.60;96456.00;;;;5010104;28;20219;-57
2023/05/18 11:49:24;;;;;;;0.90;0.90;;;;;19.10;96470.00;;;;5014337;28;20209;-57
2023/05/18 11:52:07;;;;;;;0.90;0.90;;;;;19.10;96443.00;;;;5014205;28;20228;-56
2023/05/18 11:54:40;;;;;;;1.60;1.50;;;;;18.00;96446.00;;;;5014286;28;20200;-56
2023/05/18 11:57:08;;;;;;;0.83;0.83;;;;;18.90;96444.00;;;;5014900;28;20268;-56
2023/05/18 11:59:39;;;;;;;1.23;1.23;;;;;19.60;96469.00;;;;5014201;28;20218;-56
2023/05/18 12:02:10;;;;;;;0.70;0.70;;;;;18.80;96436.00;;;;5014261;28;20636;-56
2023/05/18 12:04:43;;;;;;;1.57;0.70;;;;;18.60;96468.00;;;;5014386;28;20236;-55
2023/05/18 12:07:11;;;;;;;0.63;0.63;;;;;18.60;96437.00;;;;5014202;28;20190;-55
2023/05/18 12:09:43;;;;;;;1.87;1.77;;;;;19.10;96464.00;;;;5014439;28;20229;-56
2023/05/18 12:12:15;;;;;;;5.60;2.07;;;;;18.60;96459.00;;;;5014027;28;20712;-55
2023/05/18 12:14:43;;;;;;;5.70;1.97;;;;;18.40;96439.00;;;;5014329;28;20574;-55
2023/05/18 12:17:11;;;;;;;0.70;0.70;;;;;19.00;96428.00;;;;5014546;28;20193;-56
2023/05/18 12:19:43;;;;;;;1.83;1.60;;;;;19.10;96440.00;;;;5013871;28;20254;-57
2023/05/18 12:22:11;;;;;;;0.87;0.87;;;;;19.30;96451.00;;;;5014247;28;20269;-57
2023/05/18 12:24:39;;;;;;;0.73;0.73;;;;;19.40;96431.00;;;;5013472;28;20197;-55
2023/05/18 12:27:10;;;;;;;1.23;1.13;;;;;19.90;96433.00;;;;5014091;28;20653;-55
2023/05/18 12:29:39;;;;;;;1.40;1.30;;;;;20.40;96429.00;;;;5014051;28;20213;-56
2023/05/18 12:32:09;;;;;;;1.63;1.53;;;;;19.40;96422.00;;;;5013815;28;20193;-57
2023/05/18 12:34:37;;;;;;;0.90;0.90;;;;;19.70;96461.00;;;;5014005;28;20198;-56